Time;durP1;ratioP1;P1;durP2;ratioP2;P2;SDS_P1;SDS_P2;PMS_P1;PMS_P2;Temp;Humidity;BMP_temperature;BMP_pressure;BME280_temperature;BME280_humidity;BME280_pressure;Samples;Min_cycle;Max_cycle;Signal;HPM_P1;HPM_P2
2022/11/22 00:05:21;;;;;;;3.80;2.50;;;7.20;99.90;;;;;;2617978;54;20382;-76
2022/11/22 00:11:12;;;;;;;4.60;2.53;;;7.10;99.90;;;;;;2617676;54;20378;-76
2022/11/22 00:16:59;;;;;;;5.00;2.87;;;7.20;99.90;;;;;;2617426;39;20867;-77
2022/11/22 00:22:46;;;;;;;6.67;2.43;;;7.20;99.90;;;;;;2616892;54;20126;-77
2022/11/22 00:28:36;;;;;;;4.33;2.90;;;7.20;99.90;;;;;;2616581;54;20131;-77
2022/11/22 00:34:23;;;;;;;6.57;2.47;;;7.10;99.90;;;;;;2616589;54;20391;-76
2022/11/22 00:40:11;;;;;;;3.50;2.80;;;7.20;99.90;;;;;;2616673;54;20135;-76
2022/11/22 00:45:58;;;;;;;3.80;3.03;;;7.10;99.90;;;;;;2617004;54;20392;-77
2022/11/22 00:51:46;;;;;;;3.37;3.07;;;7.10;99.90;;;;;;2616977;39;20742;-77
2022/11/22 01:00:57;;;;;;;2.73;2.23;;;7.00;99.90;;;;;;2616356;54;20379;-78
2022/11/22 01:06:45;;;;;;;3.53;2.90;;;7.00;99.90;;;;;;2616823;54;20388;-77
2022/11/22 01:12:32;;;;;;;3.63;3.17;;;7.00;99.90;;;;;;2617281;54;20122;-77
2022/11/22 01:18:20;;;;;;;4.27;2.93;;;7.00;99.90;;;;;;2617367;54;20170;-76
2022/11/22 01:24:08;;;;;;;5.67;3.77;;;7.00;99.90;;;;;;2618292;54;20459;-76
2022/11/22 01:29:56;;;;;;;7.13;3.00;;;7.00;99.90;;;;;;2617349;54;20394;-77
2022/11/22 01:35:44;;;;;;;5.70;2.70;;;6.90;99.90;;;;;;2616315;54;20381;-76
2022/11/22 01:41:32;;;;;;;5.43;3.13;;;7.00;99.90;;;;;;2617191;54;20951;-76
2022/11/22 01:47:23;;;;;;;6.63;2.63;;;6.90;99.90;;;;;;2617074;54;20117;-77
2022/11/22 02:00:06;;;;;;;9.70;3.80;;;7.00;99.90;;;;;;2615455;54;20370;-78
2022/11/22 02:05:55;;;;;;;4.53;3.17;;;7.00;99.90;;;;;;2615406;54;20426;-76
2022/11/22 02:11:50;;;;;;;6.73;3.73;;;7.00;99.90;;;;;;2616364;54;20378;-76
2022/11/22 02:17:37;;;;;;;4.20;3.10;;;6.90;99.90;;;;;;2616260;54;20392;-76
2022/11/22 02:23:48;;;;;;;9.23;3.40;;;7.00;99.90;;;;;;2616109;54;20729;-76
2022/11/22 02:29:35;;;;;;;8.97;3.43;;;7.10;99.90;;;;;;2616764;39;20769;-78
2022/11/22 02:35:26;;;;;;;4.97;3.53;;;7.10;99.90;;;;;;2616439;54;21166;-76
2022/11/22 02:41:13;;;;;;;8.57;3.17;;;7.30;99.90;;;;;;2616373;39;20706;-76
2022/11/22 02:47:00;;;;;;;5.53;3.43;;;7.30;99.90;;;;;;2615535;54;20122;-78
2022/11/22 02:52:47;;;;;;;4.20;2.77;;;7.30;99.90;;;;;;2615766;54;20122;-78
2022/11/22 02:58:36;;;;;;;6.23;2.90;;;7.10;99.90;;;;;;2616455;54;20156;-77
2022/11/22 03:04:23;;;;;;;5.30;2.90;;;7.10;99.90;;;;;;2615832;46;20410;-77
2022/11/22 03:10:10;;;;;;;8.10;3.40;;;7.20;99.90;;;;;;2615828;54;20122;-77
2022/11/22 03:15:58;;;;;;;11.83;4.30;;;7.30;99.90;;;;;;2616235;54;20134;-77
2022/11/22 03:18:39;;;;;;;6.10;3.20;;;7.40;99.90;;;;;;2615392;47;20387;-77
2022/11/22 03:21:08;;;;;;;13.20;2.90;;;7.30;99.90;;;;;;2615524;54;20400;-76
2022/11/22 03:26:55;;;;;;;6.33;2.93;;;7.20;99.90;;;;;;2616214;54;21011;-76
2022/11/22 03:32:43;;;;;;;6.97;3.03;;;7.10;99.90;;;;;;2616170;46;20212;-76
2022/11/22 03:38:32;;;;;;;7.20;3.90;;;7.10;99.90;;;;;;2617349;54;20135;-76
2022/11/22 03:44:20;;;;;;;12.60;3.67;;;7.10;99.90;;;;;;2617993;54;20953;-76
2022/11/22 03:50:12;;;;;;;6.40;2.40;;;6.90;99.90;;;;;;2617047;54;20412;-80
2022/11/22 03:53:15;;;;;;;10.50;3.90;;;7.00;99.90;;;;;;2617624;39;20823;-76
2022/11/22 03:55:40;;;;;;;9.20;3.37;;;6.90;99.90;;;;;;2617207;39;20846;-77
2022/11/22 04:01:28;;;;;;;8.37;3.40;;;6.80;99.90;;;;;;2616345;54;20240;-77
2022/11/22 04:07:15;;;;;;;5.70;3.23;;;6.80;99.90;;;;;;2617440;31;20895;-77
2022/11/22 04:13:02;;;;;;;6.77;3.87;;;6.70;99.90;;;;;;2617232;54;20588;-78
2022/11/22 04:18:50;;;;;;;9.00;3.90;;;6.50;99.90;;;;;;2618420;39;20516;-77
2022/11/22 04:34:30;;;;;;;7.87;3.80;;;6.60;99.90;;;;;;2618085;54;20400;-78
2022/11/22 04:40:17;;;;;;;14.53;3.93;;;6.70;99.90;;;;;;2616493;54;20567;-77
2022/11/22 04:46:05;;;;;;;7.97;4.37;;;6.50;99.90;;;;;;2616609;54;20142;-77
2022/11/22 04:57:58;;;;;;;18.57;3.93;;;6.40;99.90;;;;;;2616496;54;20371;-78
2022/11/22 05:03:45;;;;;;;9.50;4.33;;;6.50;99.90;;;;;;2616270;54;20367;-77
2022/11/22 05:09:32;;;;;;;15.13;4.00;;;6.40;99.90;;;;;;2616386;54;20155;-77
2022/11/22 05:15:19;;;;;;;15.13;4.13;;;6.30;99.90;;;;;;2616029;54;20679;-78
2022/11/22 05:21:10;;;;;;;8.50;5.10;;;6.40;99.90;;;;;;2615444;54;20122;-78
2022/11/22 05:24:00;;;;;;;12.17;4.13;;;6.30;99.90;;;;;;2615848;39;20780;-78
2022/11/22 05:26:30;;;;;;;12.03;4.27;;;6.30;99.90;;;;;;2615348;46;20403;-78
2022/11/22 05:29:52;;;;;;;7.70;3.33;;;6.30;99.90;;;;;;2615022;46;21531;-77
2022/11/22 05:35:39;;;;;;;13.50;4.70;;;6.50;99.90;;;;;;2615738;54;20396;-77
2022/11/22 05:41:27;;;;;;;9.73;3.47;;;6.10;99.90;;;;;;2616922;54;20280;-78
2022/11/22 05:47:15;;;;;;;16.67;5.00;;;6.10;99.90;;;;;;2616671;54;20366;-78
2022/11/22 05:53:03;;;;;;;15.93;4.20;;;6.40;99.90;;;;;;2616737;46;20154;-78
2022/11/22 05:58:52;;;;;;;9.47;4.03;;;6.20;99.90;;;;;;2616517;54;20134;-76
2022/11/22 06:04:39;;;;;;;11.67;4.10;;;6.10;99.90;;;;;;2616345;54;20394;-77
2022/11/22 06:10:27;;;;;;;8.00;4.03;;;6.00;99.90;;;;;;2616042;54;20620;-78
2022/11/22 06:16:15;;;;;;;13.33;4.13;;;5.90;99.90;;;;;;2616367;54;20209;-77
2022/11/22 06:22:03;;;;;;;8.13;3.70;;;5.90;99.90;;;;;;2616856;54;20530;-78
2022/11/22 06:27:51;;;;;;;6.13;2.97;;;6.00;99.90;;;;;;2615568;46;20149;-80
2022/11/22 06:33:40;;;;;;;18.53;4.87;;;6.10;99.90;;;;;;2615505;54;20150;-81
2022/11/22 06:39:28;;;;;;;10.57;4.63;;;6.20;99.90;;;;;;2615251;54;20415;-81
2022/11/22 06:45:15;;;;;;;6.87;3.00;;;6.10;99.90;;;;;;2613526;54;20158;-81
2022/11/22 06:57:28;;;;;;;17.20;4.50;;;6.10;99.90;;;;;;2615371;39;20739;-77
2022/11/22 06:59:53;;;;;;;11.07;4.30;;;6.10;99.90;;;;;;2615394;54;20524;-77
2022/11/22 07:02:19;;;;;;;19.53;4.87;;;6.10;99.90;;;;;;2615376;46;20720;-76
2022/11/22 07:08:06;;;;;;;16.97;4.53;;;6.00;99.90;;;;;;2615244;54;20402;-77
2022/11/22 07:13:59;;;;;;;6.50;2.70;;;6.10;99.90;;;;;;2616214;46;20145;-78
2022/11/22 07:19:46;;;;;;;14.03;4.63;;;6.00;99.90;;;;;;2615825;54;20363;-79
2022/11/22 07:28:57;;;;;;;8.67;3.83;;;6.10;99.90;;;;;;2616166;54;20434;-78
2022/11/22 07:34:44;;;;;;;8.60;4.10;;;6.10;99.90;;;;;;2616050;54;20367;-77
2022/11/22 07:37:09;;;;;;;12.73;3.70;;;6.00;99.90;;;;;;2612278;49;21221;-80
2022/11/22 07:39:35;;;;;;;6.50;2.77;;;6.10;99.90;;;;;;2613298;47;20262;-81
2022/11/22 07:45:22;;;;;;;10.90;3.70;;;6.10;99.90;;;;;;2612735;54;20148;-80
2022/11/22 07:51:09;;;;;;;12.90;4.20;;;6.30;99.90;;;;;;2614344;54;20142;-82
2022/11/22 07:56:56;;;;;;;8.47;4.53;;;6.50;99.90;;;;;;2614851;54;20130;-82
2022/11/22 08:02:44;;;;;;;7.47;4.03;;;6.50;99.90;;;;;;2615419;54;20137;-81
2022/11/22 08:08:35;;;;;;;10.13;3.53;;;6.70;99.90;;;;;;2614678;54;20445;-82
2022/11/22 08:14:23;;;;;;;16.93;3.80;;;8.00;99.90;;;;;;2615617;54;20399;-80
2022/11/22 08:20:12;;;;;;;12.40;4.20;;;9.40;99.90;;;;;;2611973;54;20399;-79
2022/11/22 08:29:31;;;;;;;7.43;3.50;;;9.30;99.90;;;;;;2614305;54;20446;-79
2022/11/22 08:35:19;;;;;;;10.77;4.00;;;8.30;99.90;;;;;;2615332;54;20383;-81
2022/11/22 08:41:07;;;;;;;9.40;3.60;;;8.20;99.90;;;;;;2615826;54;20247;-80
2022/11/22 08:46:55;;;;;;;6.47;3.53;;;8.60;99.90;;;;;;2615058;31;20608;-81
2022/11/22 08:52:43;;;;;;;9.43;4.40;;;8.40;99.90;;;;;;2618783;54;20403;-81
2022/11/22 08:58:32;;;;;;;5.83;4.00;;;8.70;99.90;;;;;;2614616;54;20138;-81
2022/11/22 09:01:04;;;;;;;5.03;3.40;;;9.00;99.90;;;;;;2609600;47;21007;-80
2022/11/22 09:03:30;;;;;;;6.90;3.50;;;8.70;99.90;;;;;;2612219;47;20414;-80
2022/11/22 09:09:18;;;;;;;10.20;3.97;;;9.30;99.90;;;;;;2614725;39;20531;-82
2022/11/22 09:15:06;;;;;;;6.37;3.30;;;9.20;99.90;;;;;;2615664;39;20535;-82
2022/11/22 09:21:00;;;;;;;9.43;3.23;;;9.70;99.90;;;;;;2614349;54;20387;-80
2022/11/22 09:30:11;;;;;;;6.47;4.30;;;10.80;75.20;;;;;;2613807;39;20902;-81
2022/11/22 09:35:59;;;;;;;3.67;3.40;;;9.90;91.50;;;;;;2614641;54;20402;-81
2022/11/22 09:39:03;;;;;;;13.97;4.67;;;11.90;56.20;;;;;;2614418;46;20535;-82
2022/11/22 09:42:06;;;;;;;10.23;4.60;;;11.40;57.60;;;;;;2614256;47;20416;-81
2022/11/22 09:54:16;;;;;;;4.97;4.57;;;12.60;43.70;;;;;;2614905;54;20967;-81
2022/11/22 10:06:31;;;;;;;8.90;5.60;;;11.80;43.00;;;;;;2615744;54;20535;-81
2022/11/22 10:16:28;;;;;;;5.53;5.13;;;13.90;36.50;;;;;;2615973;39;20826;-81
2022/11/22 10:22:15;;;;;;;6.30;5.70;;;11.20;54.20;;;;;;2615734;54;20860;-80
2022/11/22 10:35:24;;;;;;;8.50;5.07;;;9.10;93.90;;;;;;2616328;54;20541;-84
2022/11/22 10:48:22;;;;;;;6.80;5.00;;;10.10;87.00;;;;;;2615273;54;20416;-84
2022/11/22 10:54:28;;;;;;;4.97;4.57;;;12.00;43.30;;;;;;2615184;39;20792;-82
2022/11/22 11:00:23;;;;;;;6.23;5.60;;;10.80;56.60;;;;;;2614272;54;21003;-83
2022/11/22 11:12:30;;;;;;;6.80;5.10;;;13.00;37.50;;;;;;2616003;54;20391;-82
2022/11/22 11:18:24;;;;;;;5.30;4.90;;;11.60;48.60;;;;;;2615345;54;20654;-81
2022/11/22 11:24:15;;;;;;;6.00;4.67;;;12.20;39.10;;;;;;2616968;54;20400;-82
2022/11/22 11:30:04;;;;;;;5.10;4.70;;;13.70;33.80;;;;;;2615623;54;20375;-82
2022/11/22 11:39:35;;;;;;;5.13;4.70;;;12.90;37.30;;;;;;2615136;54;20461;-82
2022/11/22 11:45:28;;;;;;;4.90;4.13;;;14.30;30.00;;;;;;2616332;54;20503;-82
2022/11/22 12:01:24;;;;;;;5.60;5.20;;;13.80;29.80;;;;;;2617860;54;20403;-84
2022/11/22 12:20:12;;;;;;;6.57;5.80;;;9.80;72.00;;;;;;2617210;54;20374;-84
2022/11/22 12:23:26;;;;;;;4.93;4.53;;;11.20;57.50;;;;;;2616046;46;20957;-84
2022/11/22 12:30:05;;;;;;;6.03;5.47;;;11.30;57.80;;;;;;2618669;54;20504;-84
2022/11/22 12:35:54;;;;;;;6.53;5.90;;;12.40;42.30;;;;;;2618495;54;20464;-81
2022/11/22 12:41:51;;;;;;;5.53;5.13;;;14.60;33.00;;;;;;2618487;54;20386;-83
2022/11/22 12:47:43;;;;;;;6.30;5.90;;;15.00;29.00;;;;;;2618563;54;20370;-83
2022/11/22 12:53:38;;;;;;;6.03;5.73;;;14.60;30.80;;;;;;2618437;54;20399;-83
2022/11/22 13:06:06;;;;;;;5.03;4.60;;;10.90;48.90;;;;;;2618420;54;20399;-84
2022/11/22 13:11:58;;;;;;;5.47;5.17;;;11.90;39.10;;;;;;2618572;54;20445;-82
2022/11/22 13:17:46;;;;;;;5.30;4.87;;;10.40;63.90;;;;;;2618628;54;20388;-82
2022/11/22 13:33:41;;;;;;;5.80;5.50;;;9.80;73.90;;;;;;2617407;54;20965;-84
2022/11/22 13:39:29;;;;;;;5.77;5.20;;;9.70;72.60;;;;;;2618198;54;20387;-82
2022/11/22 13:45:22;;;;;;;5.50;5.00;;;9.60;78.20;;;;;;2618430;54;20138;-82
2022/11/22 13:51:13;;;;;;;6.10;5.33;;;9.60;80.50;;;;;;2620459;54;20548;-82
2022/11/22 14:03:40;;;;;;;8.80;5.10;;;9.50;88.00;;;;;;2620267;54;20391;-82
2022/11/22 14:09:31;;;;;;;4.70;4.40;;;9.50;90.50;;;;;;2618971;54;20395;-82
2022/11/22 14:32:46;;;;;;;5.10;4.70;;;9.20;98.40;;;;;;2616383;54;20400;-82
2022/11/22 14:38:40;;;;;;;4.70;4.40;;;9.20;98.80;;;;;;2616522;54;20980;-82
2022/11/22 14:44:33;;;;;;;5.17;4.87;;;9.20;99.90;;;;;;2616935;54;20379;-83
2022/11/22 14:50:24;;;;;;;5.23;4.90;;;9.20;98.80;;;;;;2615799;54;20503;-82
2022/11/22 15:16:21;;;;;;;4.50;4.20;;;8.90;99.90;;;;;;2620048;31;20823;-83
2022/11/22 15:28:24;;;;;;;4.17;3.97;;;8.70;99.90;;;;;;2617565;54;20399;-82
2022/11/22 15:34:22;;;;;;;4.77;4.37;;;8.60;99.90;;;;;;2617808;54;20242;-82
2022/11/22 15:40:19;;;;;;;4.53;4.07;;;8.60;99.90;;;;;;2617851;54;20375;-83
2022/11/22 15:46:07;;;;;;;4.37;4.00;;;8.60;99.90;;;;;;2615547;54;20397;-82
2022/11/22 15:51:58;;;;;;;4.40;4.10;;;8.60;99.90;;;;;;2616418;54;20281;-82
2022/11/22 15:57:51;;;;;;;4.17;3.83;;;8.60;99.90;;;;;;2616544;54;20387;-81
2022/11/22 16:03:41;;;;;;;7.50;4.50;;;8.60;99.90;;;;;;2614917;54;20395;-81
2022/11/22 16:09:34;;;;;;;4.33;4.03;;;8.50;99.90;;;;;;2615501;54;20398;-83
2022/11/22 16:15:35;;;;;;;4.07;3.77;;;8.60;99.90;;;;;;2615740;54;21090;-80
2022/11/22 16:21:28;;;;;;;4.40;4.10;;;8.50;99.90;;;;;;2616547;54;20496;-81
2022/11/22 16:27:15;;;;;;;4.67;4.27;;;8.60;99.90;;;;;;2616852;54;20391;-82
2022/11/22 16:29:52;;;;;;;4.30;4.00;;;8.60;99.90;;;;;;2615662;54;20422;-81
2022/11/22 16:32:18;;;;;;;3.83;3.60;;;8.60;99.90;;;;;;2616069;54;20151;-82
2022/11/22 16:38:06;;;;;;;3.93;3.67;;;8.70;99.90;;;;;;2617068;54;20685;-82
2022/11/22 16:43:58;;;;;;;6.70;4.40;;;8.70;99.90;;;;;;2617221;54;20122;-81
2022/11/22 16:49:47;;;;;;;3.93;3.73;;;8.60;99.90;;;;;;2617517;39;20783;-83
2022/11/22 16:55:34;;;;;;;4.63;4.20;;;8.70;99.90;;;;;;2617416;54;20406;-82
2022/11/22 17:01:25;;;;;;;3.97;3.67;;;8.60;99.90;;;;;;2617602;54;20131;-82
2022/11/22 17:07:14;;;;;;;3.70;3.43;;;8.70;99.90;;;;;;2617918;54;20366;-82
2022/11/22 17:13:01;;;;;;;4.80;4.50;;;8.70;99.90;;;;;;2616428;54;20379;-82
2022/11/22 17:18:48;;;;;;;4.47;4.17;;;8.70;99.90;;;;;;2615536;54;20664;-82
2022/11/22 17:27:57;;;;;;;3.30;3.10;;;8.50;99.90;;;;;;2616669;39;20831;-83
2022/11/22 17:33:48;;;;;;;3.33;3.13;;;8.50;99.90;;;;;;2616770;54;20141;-81
2022/11/22 17:39:39;;;;;;;3.60;3.30;;;8.40;99.90;;;;;;2615939;54;20402;-82
2022/11/22 17:45:27;;;;;;;3.80;3.50;;;8.30;99.90;;;;;;2617224;54;20934;-81
2022/11/22 17:51:14;;;;;;;3.37;3.07;;;7.90;99.90;;;;;;2616172;54;20431;-82
2022/11/22 17:57:01;;;;;;;12.13;3.60;;;7.80;99.90;;;;;;2615532;54;20162;-80
2022/11/22 18:02:48;;;;;;;5.30;3.40;;;7.90;99.90;;;;;;2615566;54;20167;-82
2022/11/22 18:08:39;;;;;;;12.00;6.93;;;7.90;99.90;;;;;;2615993;54;20150;-81
2022/11/22 18:14:27;;;;;;;5.37;4.13;;;7.90;99.90;;;;;;2615580;54;20965;-82
2022/11/22 18:20:14;;;;;;;3.67;3.30;;;7.80;99.90;;;;;;2617557;39;20741;-81
2022/11/22 18:26:04;;;;;;;4.67;3.23;;;7.70;99.90;;;;;;2616516;54;20154;-81
2022/11/22 18:35:14;;;;;;;5.20;4.73;;;7.50;99.90;;;;;;2616341;54;20414;-82
2022/11/22 18:37:42;;;;;;;5.97;5.37;;;7.50;99.90;;;;;;2614661;46;20435;-81
2022/11/22 18:43:30;;;;;;;4.57;4.17;;;7.50;99.90;;;;;;2615183;54;20372;-82
2022/11/22 18:49:23;;;;;;;4.47;4.07;;;7.50;99.90;;;;;;2613049;54;20423;-81
2022/11/22 18:55:14;;;;;;;3.30;3.00;;;7.50;99.90;;;;;;2613916;54;20413;-79
2022/11/22 19:04:22;;;;;;;5.67;4.70;;;7.60;99.90;;;;;;2613139;54;20494;-80
2022/11/22 19:10:12;;;;;;;3.37;3.07;;;7.60;99.90;;;;;;2613708;54;20134;-80
2022/11/22 19:26:28;;;;;;;4.00;3.70;;;7.70;99.90;;;;;;2612330;54;20424;-80
2022/11/22 19:36:05;;;;;;;3.03;2.70;;;7.70;99.90;;;;;;2610449;54;20510;-79
2022/11/22 19:41:53;;;;;;;3.87;3.47;;;7.60;99.90;;;;;;2612905;39;20797;-79
2022/11/22 19:47:40;;;;;;;3.07;2.50;;;7.70;99.90;;;;;;2612643;54;20691;-79
2022/11/22 19:53:27;;;;;;;2.63;2.10;;;7.70;99.90;;;;;;2611370;54;20166;-80
2022/11/22 19:59:17;;;;;;;6.60;3.83;;;7.70;99.90;;;;;;2613035;54;20210;-79
2022/11/22 20:05:05;;;;;;;3.27;2.57;;;7.60;99.90;;;;;;2614036;54;20407;-80
2022/11/22 20:10:58;;;;;;;2.87;2.53;;;7.60;99.90;;;;;;2615583;54;20158;-80
2022/11/22 20:16:46;;;;;;;7.00;2.83;;;7.70;99.90;;;;;;2614675;54;20390;-80
2022/11/22 20:22:34;;;;;;;4.67;2.43;;;7.70;99.90;;;;;;2616730;39;20550;-81
2022/11/22 20:28:22;;;;;;;2.80;2.60;;;7.90;99.90;;;;;;2615852;54;20881;-79
2022/11/22 20:31:33;;;;;;;2.50;2.03;;;7.80;99.90;;;;;;2614853;47;20960;-80
2022/11/22 20:34:00;;;;;;;3.77;2.83;;;8.00;99.90;;;;;;2613727;47;20189;-81
2022/11/22 20:39:48;;;;;;;4.60;2.90;;;8.00;99.90;;;;;;2616258;54;20391;-79
2022/11/22 20:45:35;;;;;;;2.63;2.40;;;8.00;99.90;;;;;;2615794;39;20535;-82
2022/11/22 20:51:25;;;;;;;3.60;2.80;;;8.00;99.90;;;;;;2615820;54;20130;-81
2022/11/22 20:57:13;;;;;;;2.37;2.10;;;8.00;99.90;;;;;;2615783;54;20386;-81
2022/11/22 21:03:01;;;;;;;7.50;3.50;;;8.10;99.90;;;;;;2615382;54;20154;-80
2022/11/22 21:08:49;;;;;;;5.37;3.10;;;8.10;99.90;;;;;;2615643;54;20257;-80
2022/11/22 21:14:37;;;;;;;4.70;3.27;;;8.30;99.90;;;;;;2616304;54;20375;-80
2022/11/22 21:20:24;;;;;;;4.73;2.13;;;8.30;99.90;;;;;;2613487;54;20604;-82
2022/11/22 21:23:27;;;;;;;5.33;2.67;;;8.30;99.90;;;;;;2613541;47;20423;-81
2022/11/22 21:25:53;;;;;;;3.20;2.63;;;8.30;99.90;;;;;;2614477;39;20592;-82
2022/11/22 21:38:23;;;;;;;2.60;2.20;;;8.30;99.90;;;;;;2613121;54;20898;-79
2022/11/22 21:44:11;;;;;;;6.90;2.20;;;8.30;99.90;;;;;;2612920;39;20538;-81
2022/11/22 21:49:58;;;;;;;2.97;2.20;;;8.30;99.90;;;;;;2613498;54;20495;-81
2022/11/22 21:55:49;;;;;;;4.80;2.70;;;8.30;99.90;;;;;;2612132;54;20126;-80
2022/11/22 22:01:37;;;;;;;4.93;2.83;;;8.30;99.90;;;;;;2612223;54;20507;-80
2022/11/22 22:07:24;;;;;;;3.63;2.30;;;8.10;99.90;;;;;;2613780;54;20227;-79
2022/11/22 22:13:11;;;;;;;3.73;1.90;;;8.20;99.90;;;;;;2611920;39;20626;-79
2022/11/22 22:18:59;;;;;;;3.00;1.60;;;8.20;99.90;;;;;;2613456;39;20563;-80
2022/11/22 22:24:46;;;;;;;2.10;1.60;;;8.30;99.90;;;;;;2611305;54;20403;-78
2022/11/22 22:30:33;;;;;;;4.47;2.47;;;8.30;99.90;;;;;;2610771;54;20163;-78
2022/11/22 22:32:59;;;;;;;5.70;2.13;;;8.40;99.90;;;;;;2612979;54;20472;-79
2022/11/22 22:35:25;;;;;;;4.27;2.40;;;8.40;99.90;;;;;;2613596;54;20166;-79
2022/11/22 22:41:12;;;;;;;5.90;2.60;;;8.40;99.90;;;;;;2612155;54;20139;-80
2022/11/22 22:46:59;;;;;;;2.87;1.73;;;8.30;99.90;;;;;;2615002;39;20740;-79
2022/11/22 22:52:47;;;;;;;8.90;2.80;;;8.20;99.90;;;;;;2612590;54;20133;-79
2022/11/22 22:58:35;;;;;;;7.93;2.20;;;8.20;99.90;;;;;;2610208;54;20189;-78
2022/11/22 23:07:44;;;;;;;4.00;2.00;;;8.10;99.90;;;;;;2612479;54;20363;-78
2022/11/22 23:13:32;;;;;;;5.53;1.60;;;8.00;99.90;;;;;;2612025;54;20218;-79
2022/11/22 23:19:21;;;;;;;5.20;2.13;;;8.00;99.90;;;;;;2612057;54;20475;-79
2022/11/22 23:25:09;;;;;;;5.53;2.20;;;7.90;99.90;;;;;;2613496;54;20407;-81
2022/11/22 23:40:40;;;;;;;4.30;2.00;;;8.00;99.90;;;;;;2612872;54;20415;-79
2022/11/22 23:46:28;;;;;;;6.30;2.97;;;8.10;99.90;;;;;;2614822;54;20158;-81
2022/11/22 23:52:16;;;;;;;3.90;2.13;;;8.20;99.90;;;;;;2612738;39;20704;-79
2022/11/22 23:58:04;;;;;;;7.63;2.50;;;8.20;99.90;;;;;;2613522;54;20134;-80
